Malmesbury, South Africa
Current Conditions -  °F | °C
As of 4:00 AM on Saturday 22 Nov 2014 (Local Time) from FACT Reporting Station
Clear Clear  
Wind Chill: 63°   Ceiling: Unl
Heat Index: 63°   Visibility: 6mi
Dew Point: 54°   Wind: 15mph
Humidity: 72%   Direction: 220°SW
Pressure: 29.85"   Gusts: NA
Location:  33.45°S, 18.72°E
Report Text: FACT 220200Z 22013KT CAVOK 17/12 Q1011 NOSIG
Loading
Personal Weather Stations






























Interactive Weather Map New forecast layout! Learn more

10-Day Weather Forecast

Advertisements
Track Severe Weather on mobile